Flight Track Log - Related Links

Times and Time Zones

All times are in EDT time to prevent confusion due to time zone crossing. See the UAL1433 flight status page for this flight to view local times or setup timezone preferences in your user account.


Time Position Orientation Groundspeed Altitude Reporting Facility
EDT Latitude Longitude Course Direction KTS MPH feet Rate Location/Type
Sat 02:13:00 PM 12.4812 -86.2290 350° North  Level FlightAware Approximate
Sat 02:14:00 PM 12.5944 -86.2493 350° North  Level FlightAware Approximate
Sat 02:15:00 PM 12.7076 -86.2696 350° North  Level FlightAware Approximate
Sat 02:16:00 PM 12.8208 -86.2900 350° North  Level FlightAware Approximate
Sat 02:17:00 PM 12.9340 -86.3103 350° North  Level FlightAware Approximate
Sat 02:18:00 PM 13.0472 -86.3307 350° North  Level FlightAware Approximate
Sat 02:19:00 PM 13.1605 -86.3511 350° North  Level FlightAware Approximate
Sat 02:20:00 PM 13.2737 -86.3716 350° North  Level FlightAware Approximate
Sat 02:21:00 PM 13.3869 -86.3920 350° North  Level FlightAware Approximate
Sat 02:22:00 PM 13.5001 -86.4125 350° North  Level FlightAware Approximate
Sat 02:23:00 PM 13.6133 -86.4329 350° North  Level FlightAware Approximate
Sat 02:24:00 PM 13.7265 -86.4534 350° North  Level FlightAware Approximate
Sat 02:25:00 PM 13.8397 -86.4739 350° North  Level FlightAware Approximate
Sat 02:26:00 PM 13.9529 -86.4945 350° North  Level FlightAware Approximate
Sat 02:27:00 PM 14.0710 -86.5170 349° North  Level FlightAware Approximate
Sat 02:28:00 PM 14.1840 -86.5390 349° North  Level FlightAware Approximate
Sat 02:29:00 PM 14.2970 -86.5610 349° North  Level FlightAware Approximate
Sat 02:30:00 PM 14.4099 -86.5830 349° North  Level FlightAware Approximate
Sat 02:31:00 PM 14.5229 -86.6050 349° North  Level FlightAware Approximate
Sat 02:32:00 PM 14.6358 -86.6270 349° North  Level FlightAware Approximate
Sat 02:33:00 PM 14.7487 -86.6491 349° North  Level FlightAware Approximate
Sat 02:34:00 PM 14.8617 -86.6712 349° North  Level FlightAware Approximate
Sat 02:35:00 PM 14.9746 -86.6933 349° North  Level FlightAware Approximate
Sat 02:36:00 PM 15.0876 -86.7154 349° North  Level FlightAware Approximate
Sat 02:37:00 PM 15.2005 -86.7376 349° North  Level FlightAware Approximate
Sat 02:38:00 PM 15.3134 -86.7598 349° North  Level FlightAware Approximate
Sat 02:39:00 PM 15.4264 -86.7820 349° North  Level FlightAware Approximate
Sat 02:40:00 PM 15.5394 -86.8035 350° North  Level FlightAware Approximate
Sat 02:41:00 PM 15.6482 -86.8243 350° North  Level FlightAware Approximate
Sat 02:42:00 PM 15.7571 -86.8451 350° North  Level FlightAware Approximate
Sat 02:43:00 PM 15.8659 -86.8659 350° North  Level FlightAware Approximate
Sat 02:44:00 PM 15.9748 -86.8867 350° North  Level FlightAware Approximate
Sat 02:45:00 PM 16.0836 -86.9075 350° North  Level FlightAware Approximate
Sat 02:46:00 PM 16.1924 -86.9284 350° North  Level FlightAware Approximate
Sat 02:47:00 PM 16.3013 -86.9493 350° North  Level FlightAware Approximate
Sat 02:48:00 PM 16.4101 -86.9702 350° North  Level FlightAware Approximate
Sat 02:49:00 PM 16.5189 -86.9912 350° North  Level FlightAware Approximate
Sat 02:50:00 PM 16.6277 -87.0121 350° North  Level FlightAware Approximate
Sat 02:51:00 PM 16.7365 -87.0331 350° North  Level FlightAware Approximate
Sat 02:52:00 PM 16.8454 -87.0541 350° North  Level FlightAware Approximate
Sat 02:53:00 PM 16.9542 -87.0752 350° North  Level FlightAware Approximate
Sat 02:54:00 PM 17.0630 -87.0962 350° North  Level FlightAware Approximate
Sat 02:55:00 PM 17.1718 -87.1173 350° North  Level FlightAware Approximate
Sat 02:56:00 PM 17.2806 -87.1384 350° North  Level FlightAware Approximate
Sat 02:57:00 PM 17.3894 -87.1596 349° North  Level FlightAware Approximate
Sat 02:58:00 PM 17.4982 -87.1807 349° North  Level FlightAware Approximate
Sat 02:59:00 PM 17.6070 -87.2019 349° North  Level FlightAware Approximate
Sat 03:00:00 PM 17.7159 -87.2231 349° North  Level FlightAware Approximate
Sat 03:01:00 PM 17.8246 -87.2443 349° North  Level FlightAware Approximate
Sat 03:02:00 PM 17.9334 -87.2656 349° North  Level FlightAware Approximate
Sat 03:03:00 PM 18.0422 -87.2869 349° North  Level FlightAware Approximate
Sat 03:04:00 PM 18.1510 -87.3082 349° North  Level FlightAware Approximate
Sat 03:05:00 PM 18.2598 -87.3296 349° North  Level FlightAware Approximate
Sat 03:06:00 PM 18.3686 -87.3509 349° North  Level FlightAware Approximate
Sat 03:07:00 PM 18.4774 -87.3723 349° North  Level FlightAware Approximate
Sat 03:08:00 PM 18.5862 -87.3938 349° North  Level FlightAware Approximate
Sat 03:09:00 PM 18.6949 -87.4154 349° North  Level FlightAware Approximate
Sat 03:10:00 PM 18.8037 -87.4370 349° North  Level FlightAware Approximate
Sat 03:11:00 PM 18.9124 -87.4586 349° North  Level FlightAware Approximate
Sat 03:12:00 PM 19.0212 -87.4802 349° North  Level FlightAware Approximate
Sat 03:13:00 PM 19.1299 -87.5019 349° North  Level FlightAware Approximate
Sat 03:14:00 PM 19.2387 -87.5237 349° North  Level FlightAware Approximate
Sat 03:15:00 PM 19.3474 -87.5454 349° North  Level FlightAware Approximate
Sat 03:16:00 PM 19.4562 -87.5672 349° North  Level FlightAware Approximate
Sat 03:17:00 PM 19.5649 -87.5890 349° North  Level FlightAware Approximate
Sat 03:18:00 PM 19.6736 -87.6108 349° North  Level FlightAware Approximate
Sat 03:19:00 PM 19.7824 -87.6326 349° North  Level FlightAware Approximate
Sat 03:20:00 PM 19.8911 -87.6545 349° North  Level FlightAware Approximate
Sat 03:21:00 PM 19.9998 -87.6765 349° North  Level FlightAware Approximate
Sat 03:22:00 PM 20.1086 -87.6984 349° North  Level FlightAware Approximate
Sat 03:23:00 PM 20.2173 -87.7204 349° North  Level FlightAware Approximate
Sat 03:24:00 PM 20.3260 -87.7424 349° North  Level FlightAware Approximate
Sat 03:25:00 PM 20.4347 -87.7644 349° North  Level FlightAware Approximate
Sat 03:26:00 PM 20.5434 -87.7865 349° North  Level FlightAware Approximate
Sat 03:27:00 PM 20.6521 -87.8086 349° North  Level FlightAware Approximate
Sat 03:28:00 PM 20.7609 -87.8307 349° North  Level FlightAware Approximate
Sat 03:29:00 PM 20.8696 -87.8529 349° North  Level FlightAware Approximate
Sat 03:30:00 PM 20.9783 -87.8751 349° North  Level FlightAware Approximate
Sat 03:31:00 PM 21.0870 -87.8973 349° North  Level FlightAware Approximate
Sat 03:32:00 PM 21.1964 -87.9148 352° North  Level FlightAware Approximate
Sat 03:33:00 PM 21.3059 -87.9317 352° North  Level FlightAware Approximate
Sat 03:34:00 PM 21.4146 -87.9543 349° North  Level FlightAware Approximate
Sat 03:35:00 PM 21.5231 -87.9777 349° North  Level FlightAware Approximate
Sat 03:36:00 PM 21.6316 -88.0010 349° North  Level FlightAware Approximate
Sat 03:37:00 PM 21.7401 -88.0244 349° North  Level FlightAware Approximate
Sat 03:38:00 PM 21.8486 -88.0478 349° North  Level FlightAware Approximate
Sat 03:39:00 PM 21.9571 -88.0713 349° North  Level FlightAware Approximate
Sat 03:40:00 PM 22.0656 -88.0947 349° North  Level FlightAware Approximate
Sat 03:41:00 PM 22.1730 -88.1211 327° Northwest  Level FlightAware Approximate
Sat 03:42:00 PM 22.2656 -88.1866 327° Northwest  Level FlightAware Approximate
Sat 03:43:00 PM 22.3582 -88.2522 327° Northwest  Level FlightAware Approximate
Sat 03:44:00 PM 22.4507 -88.3178 327° Northwest  Level FlightAware Approximate
Sat 03:45:00 PM 22.5432 -88.3836 327° Northwest  Level FlightAware Approximate
Sat 03:46:00 PM 22.6357 -88.4494 327° Northwest  Level FlightAware Approximate
Sat 03:47:00 PM 22.7273 -88.5166 325° Northwest  Level FlightAware Approximate
Sat 03:48:00 PM 22.8181 -88.5852 325° Northwest  Level FlightAware Approximate
Sat 03:49:00 PM 22.9088 -88.6540 325° Northwest  Level FlightAware Approximate
Sat 03:50:00 PM 22.9995 -88.7228 325° Northwest  Level FlightAware Approximate
Sat 03:51:00 PM 23.0902 -88.7918 325° Northwest  Level FlightAware Approximate
Sat 03:52:00 PM 23.1808 -88.8609 324° Northwest  Level FlightAware Approximate
Sat 03:53:00 PM 23.2708 -88.9310 324° Northwest  Level FlightAware Approximate
Sat 03:54:00 PM 23.3630 -88.9975 329° Northwest  Level FlightAware Approximate
Sat 03:55:00 PM 23.4574 -89.0605 329° Northwest  Level FlightAware Approximate
Sat 03:56:00 PM 23.5482 -89.1293 325° Northwest  Level FlightAware Approximate
Sat 03:57:00 PM 23.6387 -89.1989 325° Northwest  Level FlightAware Approximate
Sat 03:58:00 PM 23.7291 -89.2685 325° Northwest  Level FlightAware Approximate
Sat 03:59:00 PM 23.8195 -89.3383 325° Northwest  Level FlightAware Approximate
Sat 04:00:00 PM 23.9099 -89.4081 325° Northwest  Level FlightAware Approximate
Sat 04:01:00 PM 24.0002 -89.4781 325° Northwest  Level FlightAware Approximate
Sat 04:02:00 PM 24.0924 -89.5449 329° Northwest  Level FlightAware Approximate
Sat 04:03:00 PM 24.1863 -89.6092 327° Northwest  Level FlightAware Approximate
Sat 04:04:00 PM 24.2819 -89.6813 326° Northwest  Level FlightAware Approximate
Sat 04:05:00 PM 24.3776 -89.7534 326° Northwest  Level FlightAware Approximate
Sat 04:06:00 PM 24.4661 -89.8360 325° Northwest  Level Estimated
Sat 04:07:00 PM 24.5618 -89.9082 326° Northwest  Level FlightAware Approximate
Sat 04:08:00 PM 24.6575 -89.9805 326° Northwest  Level FlightAware Approximate
Sat 04:09:00 PM 24.7532 -90.0529 325° Northwest  Level FlightAware Approximate
Sat 04:10:00 PM 24.8488 -90.1255 325° Northwest  Level FlightAware Approximate
Sat 04:11:00 PM 24.9443 -90.1981 325° Northwest  Level FlightAware Approximate
Sat 04:12:00 PM 25.0363 -90.2682 325° Northwest  Level FlightAware Approximate
Sat 04:13:00 PM 25.1283 -90.3383 325° Northwest  Level FlightAware Approximate
Sat 04:14:00 PM 25.2202 -90.4086 325° Northwest  Level FlightAware Approximate
Sat 04:15:00 PM 25.3121 -90.4790 325° Northwest  Level FlightAware Approximate
Sat 04:16:00 PM 25.4039 -90.5495 325° Northwest  Level FlightAware Approximate
Sat 04:17:00 PM 25.4958 -90.6200 325° Northwest  Level FlightAware Approximate
Sat 04:18:00 PM 25.5875 -90.6908 325° Northwest  Level FlightAware Approximate
Sat 04:19:00 PM 25.6793 -90.7616 325° Northwest  Level FlightAware Approximate
Sat 04:20:00 PM 25.7710 -90.8325 325° Northwest  Level FlightAware Approximate
Sat 04:21:00 PM 25.8627 -90.9035 325° Northwest  Level FlightAware Approximate
Sat 04:21:48 PM 26.8500 -91.6658 326° Northwest 427 491 36,000  Level Houston Center
Sat 04:22:00 PM 25.9543 -90.9746 325° Northwest  Level FlightAware Approximate
Sat 04:22:50 PM 26.9675 -91.7611 324° Northwest 431 496 36,000  Level Houston Center
Sat 04:23:00 PM 26.0459 -91.0459 325° Northwest  Level FlightAware Approximate
Sat 04:23:52 PM 27.0650 -91.8378 325° Northwest 430 495 35,900  Level Houston Center
Sat 04:24:00 PM 26.1375 -91.1172 325° Northwest  Level FlightAware Approximate
Sat 04:24:53 PM 27.1597 -91.9217 322° Northwest 430 495 35,900  Level Houston Center
Sat 04:25:00 PM 26.2291 -91.1887 325° Northwest  Level FlightAware Approximate
Sat 04:25:55 PM 27.2506 -92.0108 319° Northwest 431 496 36,000  Level Houston Center
Sat 04:26:00 PM 26.3104 -91.2743 325° Northwest  Level Estimated
Sat 04:26:57 PM 27.3417 -92.1008 319° Northwest 431 496 35,900  Level Houston Center
Sat 04:27:00 PM 26.4026 -91.3447 326° Northwest  Level FlightAware Approximate
Sat 04:27:59 PM 27.4339 -92.1903 319° Northwest 432 497 36,000  Level Houston Center
Sat 04:29:00 PM 27.5247 -92.2781 319° Northwest 433 498 36,000  Level Houston Center
Sat 04:30:03 PM 27.6361 -92.3856 319° Northwest 435 501 36,000  Level Houston Center
Sat 04:31:04 PM 27.7269 -92.4764 318° Northwest 436 502 36,000 -49 Level Houston Center
Sat 04:32:05 PM 27.8194 -92.5664 319° Northwest 436 502 35,900  Descending Houston Center
Sat 04:33:07 PM 27.9106 -92.6561 319° Northwest 436 502 36,000 48 Climbing Houston Center
Sat 04:34:09 PM 28.0003 -92.7456 319° Northwest 435 501 36,000  Level Houston Center
Sat 04:35:10 PM 28.0917 -92.8358 319° Northwest 435 501 36,000  Level Houston Center
Sat 04:36:12 PM 28.1822 -92.9261 319° Northwest 435 501 36,000  Level Houston Center
Sat 04:37:14 PM 28.2914 -93.0353 319° Northwest 435 501 36,000  Level Houston Center
Sat 04:38:15 PM 28.3831 -93.1269 319° Northwest 436 502 36,000  Level Houston Center
Sat 04:39:17 PM 28.4750 -93.2192 319° Northwest 438 504 36,000  Level Houston Center
Sat 04:40:19 PM 28.5878 -93.2922 330° Northwest 448 516 36,000 -435 Level Houston Center
Sat 04:41:21 PM 28.6953 -93.3417 338° Northwest 446 513 35,100 -1,561 Descending Houston Center
Sat 04:42:22 PM 28.8111 -93.3953 338° Northwest 446 513 32,800 -2,293 Descending Houston Center
Sat 04:43:24 PM 28.9269 -93.4486 338° Northwest 447 514 30,400 -2,226 Descending Houston Center
Sat 04:44:26 PM 29.0386 -93.5014 338° Northwest 438 504 28,200 -1,610 Descending Houston Center
Sat 04:45:27 PM 29.1658 -93.5617 338° Northwest 415 478 27,100 -1,854 Descending Houston Center
Sat 04:46:29 PM 29.2725 -93.6117 338° Northwest 412 474 24,400 -2,226 Descending Houston Center
Sat 04:47:31 PM 29.3369 -93.7106 307° West 403 464 22,500 -1,902 Descending Houston Center
Sat 04:48:32 PM 29.3739 -93.8256 290° West 388 447 20,500 -1,902 Descending Houston Center
Sat 04:49:34 PM 29.4114 -93.9356 291° West 375 432 18,600 -1,895 Descending Houston Center
Sat 04:49:48 PM 29.4206 -93.9686 288° West 369 425 18,100 -1,789 Descending Houston Center
Sat 04:50:31 PM 29.4453 -94.0469 290° West 361 415 16,900 -1,846 Descending Houston Center
Sat 04:51:32 PM 29.4819 -94.1572 291° West 354 407 14,900 -1,623 Descending Houston Center
Sat 04:52:33 PM 29.5153 -94.2586 291° West 342 394 13,600 -1,190 Descending Houston Center
Sat 04:53:33 PM 29.5633 -94.3414 304° West 300 345 12,500 -1,230 Descending Houston Center
Sat 04:54:35 PM 29.6342 -94.3969 326° Northwest 293 337 11,100 -1,237 Descending Houston Center
Sat 04:55:44 PM 29.7061 -94.4522 326° Northwest 288 331 9,800 -1,091 Descending Houston Center
Sat 04:56:36 PM 29.7628 -94.5081 319° Northwest 290 334 8,900 -871 Descending Houston Center
Sat 04:56:46 PM 29.7675 -94.5108 333° Northwest 288 331 8,900 -985 Level Houston Center
Sat 04:57:43 PM 29.8150 -94.5928 304° West 289 333 7,800 -1,068 Descending Houston Center
Sat 04:58:44 PM 29.8544 -94.6722 300° West 290 334 6,800 -984 Descending Houston Center
Sat 04:59:45 PM 29.8961 -94.7561 300° West 286 329 5,800 -934 Descending Houston Center
Sat 05:00:46 PM 29.9353 -94.8356 300° West 280 322 4,900 -698 Descending Houston Center
Sat 05:01:54 PM 29.9711 -94.9089 299° West 254 292 4,300 -934 Descending Houston Center
Sat 05:02:48 PM 29.9761 -94.9775 275° West 229 264 3,000 -629 Descending Houston Center
Sat 05:03:58 PM 29.9778 -95.0497 272° West 224 258 3,000  Level Houston Center
Sat 05:04:51 PM 29.9761 -95.1128 268° West 201 231 3,000 -526 Level Houston Center
Sat 05:05:52 PM 29.9764 -95.1850 270° West 207 238 2,000 -909 Descending Houston Center
Sat 05:07:03 PM 29.9772 -95.2511 271° West 197 227 1,000 -818 Descending Houston Center
Sat 05:08:04 PM 29.9769 -95.2986 270° West 169 194 200 -787 Descending Houston Center

Login

Don't have an account? Register now (free) for customized features, flight alerts, and more!